Time;durP1;ratioP1;P1;durP2;ratioP2;P2;SDS_P1;SDS_P2;PMS_P1;PMS_P2;Temp;Humidity;BMP_temperature;BMP_pressure;BME280_temperature;BME280_humidity;BME280_pressure;Samples;Min_cycle;Max_cycle;Signal;HPM_P1;HPM_P2
2022/04/15 00:01:30;;;;;;;;;2.00;2.00;;;;;;;;5076123;27;46220;-71
2022/04/15 00:03:56;;;;;;;;;1.00;1.00;;;;;;;;5074632;28;45457;-71
2022/04/15 00:06:24;;;;;;;;;1.33;1.33;;;;;;;;5074815;27;45460;-71
2022/04/15 00:08:49;;;;;;;;;1.25;1.25;;;;;;;;5074306;28;45413;-71
2022/04/15 00:11:15;;;;;;;;;2.00;2.00;;;;;;;;5076761;27;48595;-72
2022/04/15 00:13:41;;;;;;;;;2.00;2.00;;;;;;;;5074690;27;45229;-72
2022/04/15 00:16:07;;;;;;;;;1.00;1.00;;;;;;;;5074655;28;45488;-71
2022/04/15 00:18:34;;;;;;;;;1.75;1.75;;;;;;;;5075870;27;45322;-72
2022/04/15 00:21:00;;;;;;;;;1.00;1.00;;;;;;;;5074218;28;46156;-72
2022/04/15 00:23:25;;;;;;;;;2.50;2.00;;;;;;;;5075665;27;45604;-71
2022/04/15 00:25:51;;;;;;;;;1.00;1.00;;;;;;;;5075387;27;45397;-71
2022/04/15 00:28:16;;;;;;;;;2.00;2.00;;;;;;;;5074692;28;45387;-71
2022/04/15 00:30:41;;;;;;;;;1.67;1.67;;;;;;;;5069554;27;47340;-72
2022/04/15 00:33:06;;;;;;;;;1.33;1.00;;;;;;;;5066505;27;45510;-71
2022/04/15 00:35:31;;;;;;;;;2.33;2.33;;;;;;;;5076245;27;45543;-71
2022/04/15 00:37:57;;;;;;;;;2.50;1.00;;;;;;;;5071178;27;45635;-71
2022/04/15 00:40:22;;;;;;;;;1.67;1.00;;;;;;;;5074890;28;46292;-72
2022/04/15 00:42:47;;;;;;;;;5.00;1.67;;;;;;;;5074288;28;45530;-71
2022/04/15 00:45:12;;;;;;;;;1.00;1.00;;;;;;;;5074851;28;45348;-71
2022/04/15 00:47:51;;;;;;;;;1.67;1.67;;;;;;;;5073808;28;45527;-72
2022/04/15 00:50:17;;;;;;;;;1.00;1.00;;;;;;;;5075373;27;45498;-72
2022/04/15 00:52:44;;;;;;;;;1.00;1.00;;;;;;;;5075810;27;45457;-71
2022/04/15 00:55:09;;;;;;;;;1.67;1.67;;;;;;;;5076670;27;45500;-71
2022/04/15 00:57:37;;;;;;;;;3.00;3.00;;;;;;;;5073740;27;45591;-72
2022/04/15 01:00:04;;;;;;;;;3.00;2.00;;;;;;;;5074218;28;47089;-72
2022/04/15 01:02:30;;;;;;;;;2.00;2.00;;;;;;;;5072885;28;45621;-71
2022/04/15 01:04:55;;;;;;;;;1.00;1.00;;;;;;;;5075362;28;45263;-71
2022/04/15 01:07:22;;;;;;;;;2.00;2.00;;;;;;;;5073954;28;45576;-71
2022/04/15 01:09:50;;;;;;;;;2.25;1.25;;;;;;;;5073942;27;47176;-71
2022/04/15 01:12:17;;;;;;;;;5.00;2.00;;;;;;;;5074017;28;45481;-72
2022/04/15 01:14:43;;;;;;;;;2.75;1.00;;;;;;;;5073613;28;45473;-72
2022/04/15 01:17:08;;;;;;;;;1.50;1.50;;;;;;;;5074826;27;45256;-71
2022/04/15 01:19:34;;;;;;;;;1.25;1.25;;;;;;;;5077279;27;46502;-72
2022/04/15 01:22:01;;;;;;;;;2.00;1.00;;;;;;;;5073448;27;45355;-71
2022/04/15 01:24:28;;;;;;;;;2.50;2.00;;;;;;;;5075554;28;45508;-72
2022/04/15 01:26:53;;;;;;;;;1.00;1.00;;;;;;;;5077129;27;45357;-71
2022/04/15 01:29:18;;;;;;;;;1.25;1.25;;;;;;;;5077766;27;45946;-71
2022/04/15 01:31:44;;;;;;;;;2.75;1.75;;;;;;;;5078682;28;45305;-71
2022/04/15 01:34:09;;;;;;;;;1.67;1.67;;;;;;;;5076743;28;45524;-71
2022/04/15 01:36:34;;;;;;;;;3.00;1.67;;;;;;;;5078562;27;45453;-71
2022/04/15 01:39:00;;;;;;;;;3.00;2.00;;;;;;;;5076686;28;45481;-71
2022/04/15 01:41:25;;;;;;;;;1.00;1.00;;;;;;;;5077274;27;45464;-72
2022/04/15 01:43:51;;;;;;;;;1.00;1.00;;;;;;;;5076383;27;45358;-71
2022/04/15 01:46:16;;;;;;;;;3.00;1.33;;;;;;;;5077715;28;45307;-71
2022/04/15 01:48:41;;;;;;;;;2.00;2.00;;;;;;;;5078258;27;46128;-71
2022/04/15 01:51:06;;;;;;;;;2.00;2.00;;;;;;;;5075152;28;45596;-71
2022/04/15 01:53:31;;;;;;;;;2.00;2.00;;;;;;;;5076544;28;45345;-72
2022/04/15 01:55:56;;;;;;;;;3.00;1.33;;;;;;;;5077414;27;45603;-72
2022/04/15 01:58:22;;;;;;;;;1.33;1.00;;;;;;;;5077239;28;46422;-71
2022/04/15 02:00:47;;;;;;;;;1.00;0.67;;;;;;;;5079133;27;45289;-71
2022/04/15 02:03:12;;;;;;;;;1.00;1.00;;;;;;;;5076156;28;45682;-71
2022/04/15 02:05:37;;;;;;;;;1.67;1.67;;;;;;;;5072979;27;45447;-71
2022/04/15 02:08:03;;;;;;;;;1.67;1.00;;;;;;;;5077099;27;46710;-72
2022/04/15 02:10:28;;;;;;;;;1.00;1.00;;;;;;;;5078566;27;45523;-72
2022/04/15 02:12:53;;;;;;;;;1.00;1.00;;;;;;;;5075235;28;45397;-71
2022/04/15 02:15:18;;;;;;;;;2.67;1.00;;;;;;;;5076694;27;45377;-71
2022/04/15 02:17:44;;;;;;;;;1.00;1.00;;;;;;;;5075659;28;45532;-71
2022/04/15 02:20:11;;;;;;;;;2.00;2.00;;;;;;;;5076368;27;45320;-71
2022/04/15 02:22:36;;;;;;;;;2.00;2.00;;;;;;;;5075824;28;45508;-71
2022/04/15 02:25:02;;;;;;;;;2.33;1.33;;;;;;;;5076495;28;45465;-72
2022/04/15 02:27:27;;;;;;;;;1.00;1.00;;;;;;;;5072647;27;45581;-72
2022/04/15 02:29:52;;;;;;;;;1.00;1.00;;;;;;;;5076542;27;45456;-72
2022/04/15 02:32:18;;;;;;;;;1.33;1.33;;;;;;;;5077114;27;45389;-72
2022/04/15 02:34:43;;;;;;;;;1.00;1.00;;;;;;;;5076456;27;45522;-71
2022/04/15 02:37:08;;;;;;;;;1.25;1.00;;;;;;;;5074838;27;45544;-71
2022/04/15 02:39:33;;;;;;;;;1.00;1.00;;;;;;;;5075121;28;45325;-71
2022/04/15 02:42:00;;;;;;;;;1.33;1.33;;;;;;;;5075058;28;45547;-72
2022/04/15 02:44:25;;;;;;;;;1.00;1.00;;;;;;;;5076260;27;45481;-72
2022/04/15 02:46:53;;;;;;;;;1.33;1.00;;;;;;;;5075163;28;46055;-71
2022/04/15 02:49:18;;;;;;;;;1.33;1.33;;;;;;;;5076281;28;45406;-71
2022/04/15 02:51:44;;;;;;;;;1.33;1.33;;;;;;;;5075569;28;45306;-71
2022/04/15 02:54:09;;;;;;;;;2.75;2.00;;;;;;;;5078289;27;45339;-71
2022/04/15 02:56:34;;;;;;;;;2.00;2.00;;;;;;;;5076040;28;46528;-72
2022/04/15 02:58:59;;;;;;;;;2.00;2.00;;;;;;;;5076032;27;45382;-71
2022/04/15 03:01:24;;;;;;;;;2.00;2.00;;;;;;;;5076758;27;45371;-72
2022/04/15 03:03:50;;;;;;;;;2.67;1.67;;;;;;;;5079106;27;45414;-71
2022/04/15 03:06:15;;;;;;;;;2.00;1.33;;;;;;;;5076574;27;45407;-71
2022/04/15 03:08:40;;;;;;;;;1.00;1.00;;;;;;;;5076610;28;45465;-72
2022/04/15 03:11:06;;;;;;;;;1.00;1.00;;;;;;;;5076657;28;45402;-72
2022/04/15 03:13:31;;;;;;;;;1.00;1.00;;;;;;;;5076361;28;45560;-71
2022/04/15 03:15:56;;;;;;;;;1.33;1.00;;;;;;;;5075093;27;46214;-71
2022/04/15 03:18:22;;;;;;;;;1.00;1.00;;;;;;;;5075748;27;45284;-71
2022/04/15 03:20:47;;;;;;;;;1.00;1.00;;;;;;;;5076201;27;45406;-71
2022/04/15 03:23:12;;;;;;;;;3.00;1.00;;;;;;;;5076928;27;45324;-71
2022/04/15 03:25:37;;;;;;;;;2.00;2.00;;;;;;;;5074002;27;45477;-72
2022/04/15 03:28:02;;;;;;;;;1.00;1.00;;;;;;;;5074179;28;46330;-71
2022/04/15 03:30:28;;;;;;;;;3.00;1.00;;;;;;;;5074030;28;45260;-71
2022/04/15 03:32:53;;;;;;;;;1.00;1.00;;;;;;;;5075622;28;45449;-71
2022/04/15 03:35:20;;;;;;;;;2.00;2.00;;;;;;;;5075541;28;46544;-71
2022/04/15 03:37:49;;;;;;;;;0.33;0.33;;;;;;;;5076083;27;45536;-72
2022/04/15 03:40:14;;;;;;;;;1.00;1.00;;;;;;;;5075804;28;45544;-71
2022/04/15 03:42:46;;;;;;;;;1.00;1.00;;;;;;;;5078481;27;45621;-71
2022/04/15 03:45:22;;;;;;;;;2.33;2.00;;;;;;;;5074867;28;46558;-71
2022/04/15 03:47:48;;;;;;;;;2.33;1.33;;;;;;;;5077157;27;45286;-71
2022/04/15 03:50:13;;;;;;;;;1.00;1.00;;;;;;;;5075247;27;45514;-72
2022/04/15 03:52:42;;;;;;;;;1.00;1.00;;;;;;;;5075512;27;45393;-71
2022/04/15 03:55:07;;;;;;;;;1.67;1.67;;;;;;;;5075125;28;48165;-71
2022/04/15 03:57:32;;;;;;;;;1.67;1.67;;;;;;;;5076746;27;45511;-72
2022/04/15 03:59:58;;;;;;;;;1.00;1.00;;;;;;;;5078132;27;45434;-71
2022/04/15 04:02:23;;;;;;;;;1.67;1.00;;;;;;;;5077720;27;45604;-72
2022/04/15 04:04:48;;;;;;;;;1.33;1.33;;;;;;;;5076532;27;45395;-71
2022/04/15 04:07:15;;;;;;;;;1.00;1.00;;;;;;;;5077926;27;45341;-71
2022/04/15 04:09:40;;;;;;;;;1.00;1.00;;;;;;;;5075254;28;45341;-71
2022/04/15 04:12:06;;;;;;;;;1.67;1.00;;;;;;;;5075092;28;45381;-72
2022/04/15 04:14:31;;;;;;;;;3.00;2.00;;;;;;;;5074657;28;47220;-71
2022/04/15 04:16:56;;;;;;;;;3.00;1.67;;;;;;;;5075541;27;45339;-71
2022/04/15 04:19:22;;;;;;;;;2.00;2.00;;;;;;;;5077850;27;45490;-72
2022/04/15 04:21:47;;;;;;;;;2.00;2.00;;;;;;;;5074678;28;45392;-71
2022/04/15 04:24:12;;;;;;;;;1.00;1.00;;;;;;;;5074429;27;46152;-71
2022/04/15 04:26:37;;;;;;;;;1.00;1.00;;;;;;;;5076842;27;45476;-72
2022/04/15 04:29:03;;;;;;;;;1.00;1.00;;;;;;;;5074678;27;45384;-71
2022/04/15 04:31:28;;;;;;;;;0.33;0.33;;;;;;;;5073887;28;45349;-71
2022/04/15 04:33:53;;;;;;;;;1.67;1.67;;;;;;;;5076798;27;45259;-71
2022/04/15 04:36:18;;;;;;;;;3.00;2.00;;;;;;;;5074067;28;45470;-72
2022/04/15 04:38:43;;;;;;;;;1.00;1.00;;;;;;;;5078085;27;45346;-71
2022/04/15 04:41:08;;;;;;;;;2.00;2.00;;;;;;;;5074413;27;45342;-72
2022/04/15 04:43:34;;;;;;;;;1.00;1.00;;;;;;;;5074995;28;46472;-71
2022/04/15 04:45:59;;;;;;;;;2.00;2.00;;;;;;;;5077681;27;45259;-71
2022/04/15 04:48:24;;;;;;;;;1.00;1.00;;;;;;;;5070455;28;45435;-71
2022/04/15 04:50:50;;;;;;;;;1.00;1.00;;;;;;;;5072634;28;45364;-72
2022/04/15 04:53:16;;;;;;;;;1.33;1.33;;;;;;;;5073019;28;46333;-71
2022/04/15 04:55:41;;;;;;;;;2.00;0.00;;;;;;;;5074884;27;45508;-72
2022/04/15 04:58:06;;;;;;;;;1.00;1.00;;;;;;;;5074258;28;45525;-71
2022/04/15 05:00:31;;;;;;;;;1.67;1.67;;;;;;;;5077722;28;45358;-72
2022/04/15 05:02:57;;;;;;;;;1.00;1.00;;;;;;;;5078082;27;45436;-71
2022/04/15 05:05:22;;;;;;;;;2.00;1.67;;;;;;;;5078535;27;45639;-71
2022/04/15 05:07:47;;;;;;;;;1.00;1.00;;;;;;;;5079129;28;45355;-72
2022/04/15 05:10:12;;;;;;;;;1.00;1.00;;;;;;;;5078050;28;45311;-71
2022/04/15 05:12:38;;;;;;;;;2.00;2.00;;;;;;;;5079033;27;46490;-71
2022/04/15 05:15:03;;;;;;;;;3.67;1.00;;;;;;;;5077824;27;45405;-71
2022/04/15 05:17:28;;;;;;;;;1.00;1.00;;;;;;;;5079017;27;45703;-71
2022/04/15 05:19:53;;;;;;;;;2.00;1.67;;;;;;;;5078908;27;46108;-71
2022/04/15 05:22:19;;;;;;;;;1.67;1.67;;;;;;;;5076529;28;46697;-71
2022/04/15 05:24:44;;;;;;;;;2.00;2.00;;;;;;;;5077488;28;45509;-72
2022/04/15 05:27:09;;;;;;;;;2.00;2.00;;;;;;;;5076585;28;45979;-71
2022/04/15 05:29:35;;;;;;;;;1.00;1.00;;;;;;;;5081845;27;45312;-71
2022/04/15 05:32:00;;;;;;;;;2.00;2.00;;;;;;;;5077186;27;45383;-71
2022/04/15 05:34:25;;;;;;;;;1.00;1.00;;;;;;;;5079185;27;45485;-72
2022/04/15 05:36:50;;;;;;;;;1.00;1.00;;;;;;;;5074250;28;45423;-72
2022/04/15 05:39:15;;;;;;;;;1.00;1.00;;;;;;;;5077636;28;45540;-71
2022/04/15 05:41:41;;;;;;;;;1.00;1.00;;;;;;;;5075416;28;46398;-71
2022/04/15 05:44:08;;;;;;;;;2.00;2.00;;;;;;;;5078145;27;45314;-71
2022/04/15 05:46:34;;;;;;;;;1.00;1.00;;;;;;;;5080882;27;45315;-71
2022/04/15 05:48:59;;;;;;;;;3.00;2.00;;;;;;;;5079184;27;45447;-72
2022/04/15 05:51:25;;;;;;;;;4.00;1.00;;;;;;;;5078850;27;45509;-72
2022/04/15 05:53:50;;;;;;;;;3.00;3.00;;;;;;;;5079682;27;45481;-72
2022/04/15 05:56:15;;;;;;;;;1.00;1.00;;;;;;;;5076848;27;45523;-72
2022/04/15 05:58:40;;;;;;;;;1.00;1.00;;;;;;;;5078272;27;45355;-71
2022/04/15 06:01:07;;;;;;;;;1.25;1.25;;;;;;;;5076055;28;45619;-71
2022/04/15 06:03:34;;;;;;;;;1.00;1.00;;;;;;;;5076738;28;45493;-72
2022/04/15 06:06:02;;;;;;;;;2.50;2.50;;;;;;;;5076371;28;45343;-71
2022/04/15 06:08:28;;;;;;;;;4.00;2.33;;;;;;;;5077007;28;45494;-72
2022/04/15 06:10:53;;;;;;;;;1.00;0.67;;;;;;;;5076526;27;47102;-72
2022/04/15 06:13:25;;;;;;;;;1.00;1.00;;;;;;;;5076911;28;45338;-71
2022/04/15 06:15:53;;;;;;;;;2.67;2.33;;;;;;;;5076554;28;45378;-71
2022/04/15 06:18:19;;;;;;;;;2.00;2.00;;;;;;;;5076572;28;45350;-79
2022/04/15 06:20:44;;;;;;;;;2.00;2.00;;;;;;;;5075682;28;45476;-76
2022/04/15 06:23:09;;;;;;;;;1.00;1.00;;;;;;;;5076225;28;45547;-73
2022/04/15 06:25:35;;;;;;;;;1.00;1.00;;;;;;;;5073559;28;45494;-75
2022/04/15 06:28:00;;;;;;;;;3.00;2.50;;;;;;;;5073691;28;45382;-73
2022/04/15 06:30:27;;;;;;;;;2.33;1.00;;;;;;;;5077361;27;46459;-74
2022/04/15 06:32:52;;;;;;;;;3.00;3.00;;;;;;;;5078130;27;45387;-74
2022/04/15 06:35:18;;;;;;;;;3.00;2.00;;;;;;;;5078526;27;45347;-73
2022/04/15 06:37:43;;;;;;;;;1.00;1.00;;;;;;;;5075486;27;45427;-73
2022/04/15 06:40:08;;;;;;;;;1.00;1.00;;;;;;;;5077296;27;46217;-67
2022/04/15 06:42:34;;;;;;;;;2.00;2.00;;;;;;;;5077763;27;45438;-69
2022/04/15 06:45:00;;;;;;;;;5.50;4.50;;;;;;;;5077098;27;45446;-68
2022/04/15 06:47:25;;;;;;;;;2.00;2.00;;;;;;;;5077023;27;45383;-68
2022/04/15 06:49:50;;;;;;;;;2.67;2.67;;;;;;;;5077132;27;45453;-68
2022/04/15 06:52:16;;;;;;;;;1.33;1.33;;;;;;;;5075999;27;45599;-68
2022/04/15 06:54:42;;;;;;;;;5.00;2.00;;;;;;;;5077247;27;45368;-68
2022/04/15 06:57:09;;;;;;;;;3.00;2.67;;;;;;;;5078744;27;45295;-68
2022/04/15 06:59:34;;;;;;;;;3.25;3.25;;;;;;;;5076024;27;47067;-69
2022/04/15 07:02:01;;;;;;;;;4.00;4.00;;;;;;;;5076611;27;45360;-69
2022/04/15 07:04:27;;;;;;;;;3.00;3.00;;;;;;;;5078219;27;48518;-68
2022/04/15 07:06:52;;;;;;;;;3.00;3.00;;;;;;;;5078606;27;45328;-69
2022/04/15 07:09:17;;;;;;;;;3.67;3.33;;;;;;;;5078133;27;45537;-68
2022/04/15 07:11:43;;;;;;;;;6.25;6.25;;;;;;;;5075458;28;45303;-68
2022/04/15 07:14:08;;;;;;;;;8.50;8.50;;;;;;;;5076823;27;45405;-68
2022/04/15 07:16:34;;;;;;;;;6.50;5.00;;;;;;;;5076912;27;45464;-75
2022/04/15 07:19:04;;;;;;;;;7.25;5.75;;;;;;;;5075028;28;45426;-70
2022/04/15 07:21:29;;;;;;;;;5.00;5.00;;;;;;;;5075964;27;47391;-68
2022/04/15 07:23:54;;;;;;;;;2.33;2.33;;;;;;;;5076912;27;45481;-68
2022/04/15 07:26:20;;;;;;;;;7.33;5.33;;;;;;;;5077184;27;45334;-72
2022/04/15 07:28:45;;;;;;;;;3.00;3.00;;;;;;;;5077600;27;46484;-71
2022/04/15 07:31:10;;;;;;;;;2.67;2.67;;;;;;;;5074790;28;45279;-74
2022/04/15 07:33:35;;;;;;;;;3.33;3.33;;;;;;;;5073457;28;45533;-69
2022/04/15 07:36:03;;;;;;;;;2.67;2.67;;;;;;;;5074216;28;45536;-69
2022/04/15 07:38:28;;;;;;;;;3.33;3.33;;;;;;;;5074731;27;45393;-69
2022/04/15 07:40:54;;;;;;;;;4.00;4.00;;;;;;;;5076223;28;45492;-69
2022/04/15 07:43:19;;;;;;;;;4.33;4.00;;;;;;;;5078214;27;45267;-70
2022/04/15 07:45:44;;;;;;;;;5.33;2.00;;;;;;;;5075018;28;45221;-69
2022/04/15 07:48:10;;;;;;;;;5.00;4.50;;;;;;;;5074749;27;45609;-69
2022/04/15 07:50:36;;;;;;;;;2.00;2.00;;;;;;;;5073939;27;45808;-69
2022/04/15 07:53:01;;;;;;;;;2.67;2.67;;;;;;;;5070511;28;45388;-70
2022/04/15 07:55:26;;;;;;;;;5.67;2.33;;;;;;;;5071151;27;45392;-69
2022/04/15 07:57:52;;;;;;;;;3.33;3.33;;;;;;;;5074131;27;45648;-69
2022/04/15 08:00:18;;;;;;;;;2.33;1.33;;;;;;;;5075602;27;45391;-69
2022/04/15 08:02:43;;;;;;;;;4.00;2.33;;;;;;;;5075385;27;45467;-72
2022/04/15 08:05:09;;;;;;;;;3.67;3.67;;;;;;;;5075543;27;45280;-71
2022/04/15 08:07:34;;;;;;;;;7.50;4.00;;;;;;;;5076539;27;45225;-71
2022/04/15 08:10:00;;;;;;;;;3.50;3.50;;;;;;;;5077779;27;45400;-72
2022/04/15 08:12:25;;;;;;;;;1.75;1.75;;;;;;;;5075471;28;45633;-73
2022/04/15 08:14:51;;;;;;;;;3.25;2.75;;;;;;;;5074662;28;45477;-73
2022/04/15 08:17:16;;;;;;;;;5.00;3.00;;;;;;;;5074180;27;48007;-73
2022/04/15 08:19:42;;;;;;;;;2.00;2.00;;;;;;;;5075359;27;45358;-72
2022/04/15 08:22:09;;;;;;;;;2.00;2.00;;;;;;;;5074111;27;45323;-72
2022/04/15 08:24:38;;;;;;;;;2.33;2.33;;;;;;;;5075501;27;45414;-72
2022/04/15 08:27:03;;;;;;;;;1.33;1.33;;;;;;;;5073576;27;46087;-73
2022/04/15 08:29:28;;;;;;;;;2.25;2.25;;;;;;;;5077255;27;45587;-72
2022/04/15 08:31:54;;;;;;;;;4.00;3.33;;;;;;;;5076122;27;45687;-72
2022/04/15 08:34:19;;;;;;;;;1.00;1.00;;;;;;;;5076205;28;45500;-72
2022/04/15 08:36:45;;;;;;;;;1.67;1.67;;;;;;;;5075489;27;46855;-72
2022/04/15 08:39:11;;;;;;;;;2.00;2.00;;;;;;;;5076550;27;45299;-73
2022/04/15 08:41:40;;;;;;;;;3.00;2.00;;;;;;;;5079314;27;45492;-73
2022/04/15 08:44:06;;;;;;;;;3.00;1.67;;;;;;;;5078710;27;45426;-73
2022/04/15 08:46:31;;;;;;;;;4.00;3.00;;;;;;;;5080505;27;46132;-73
2022/04/15 08:48:57;;;;;;;;;2.33;2.00;;;;;;;;5079993;27;45433;-73
2022/04/15 08:51:22;;;;;;;;;3.00;3.00;;;;;;;;5076301;28;45453;-72
2022/04/15 08:53:52;;;;;;;;;3.00;2.00;;;;;;;;5078020;28;45345;-73
2022/04/15 08:56:19;;;;;;;;;2.00;2.00;;;;;;;;5078443;27;46093;-73
2022/04/15 08:58:45;;;;;;;;;3.00;2.33;;;;;;;;5079801;27;45295;-73
2022/04/15 09:01:10;;;;;;;;;2.67;2.67;;;;;;;;5080097;27;45724;-73
2022/04/15 09:03:35;;;;;;;;;1.00;1.00;;;;;;;;5077512;28;46092;-73
2022/04/15 09:06:01;;;;;;;;;2.00;2.00;;;;;;;;5075987;28;45597;-73
2022/04/15 09:08:26;;;;;;;;;1.75;1.75;;;;;;;;5077830;28;45688;-72
2022/04/15 09:10:55;;;;;;;;;3.75;1.00;;;;;;;;5078442;27;45367;-74
2022/04/15 09:13:22;;;;;;;;;4.00;3.00;;;;;;;;5076534;28;45864;-71
2022/04/15 09:15:47;;;;;;;;;2.67;2.00;;;;;;;;5076453;28;45671;-70
2022/04/15 09:18:32;;;;;;;;;5.00;3.00;;;;;;;;5077740;28;45401;-71
2022/04/15 09:21:17;;;;;;;;;2.33;2.00;;;;;;;;5064975;27;45281;-70
2022/04/15 09:23:46;;;;;;;;;2.00;2.00;;;;;;;;5063325;28;45312;-70
2022/04/15 09:26:12;;;;;;;;;3.33;2.00;;;;;;;;5070003;28;46016;-70
2022/04/15 09:28:37;;;;;;;;;1.00;1.00;;;;;;;;5077630;28;46969;-71
2022/04/15 09:31:02;;;;;;;;;2.00;2.00;;;;;;;;5077020;28;45331;-70
2022/04/15 09:33:29;;;;;;;;;2.67;2.67;;;;;;;;5077520;27;45319;-71
2022/04/15 09:35:55;;;;;;;;;0.67;0.67;;;;;;;;5078866;27;45452;-71
2022/04/15 09:38:39;;;;;;;;;0.00;0.00;;;;;;;;5078677;27;45359;-71
2022/04/15 09:41:18;;;;;;;;;2.00;2.00;;;;;;;;5074413;28;45260;-71
2022/04/15 09:43:50;;;;;;;;;2.67;1.67;;;;;;;;5076631;28;45399;-70
2022/04/15 09:46:15;;;;;;;;;1.00;1.00;;;;;;;;5079004;27;47331;-70
2022/04/15 09:48:55;;;;;;;;;1.00;1.00;;;;;;;;5078609;27;45208;-71
2022/04/15 09:51:21;;;;;;;;;2.00;2.00;;;;;;;;5066280;27;45383;-71
2022/04/15 09:53:47;;;;;;;;;1.00;1.00;;;;;;;;5078415;27;45458;-70
2022/04/15 09:56:13;;;;;;;;;1.67;1.67;;;;;;;;5076056;27;45552;-71
2022/04/15 09:58:42;;;;;;;;;2.00;2.00;;;;;;;;5079603;27;45351;-70
2022/04/15 10:01:08;;;;;;;;;0.00;0.00;;;;;;;;5075332;27;45329;-70
2022/04/15 10:03:35;;;;;;;;;3.00;1.00;;;;;;;;5076674;28;45991;-70
2022/04/15 10:06:00;;;;;;;;;1.00;1.00;;;;;;;;5075301;28;46772;-71
2022/04/15 10:08:27;;;;;;;;;2.00;0.67;;;;;;;;5061475;27;45577;-71
2022/04/15 10:10:53;;;;;;;;;4.00;1.00;;;;;;;;5077808;27;45501;-71
2022/04/15 10:13:20;;;;;;;;;1.33;1.33;;;;;;;;5076575;28;45703;-71
2022/04/15 10:15:47;;;;;;;;;3.00;2.00;;;;;;;;5075967;28;46407;-71
2022/04/15 10:18:12;;;;;;;;;3.00;0.33;;;;;;;;5075929;28;45617;-71
2022/04/15 10:20:38;;;;;;;;;2.33;1.67;;;;;;;;5076653;28;45596;-71
2022/04/15 10:23:05;;;;;;;;;0.67;0.00;;;;;;;;5077414;27;45461;-71
2022/04/15 10:25:30;;;;;;;;;3.33;0.33;;;;;;;;5075357;27;46182;-71
2022/04/15 10:28:05;;;;;;;;;1.00;0.33;;;;;;;;5072255;28;45352;-71
2022/04/15 10:30:30;;;;;;;;;1.00;0.00;;;;;;;;5076379;28;45339;-71
2022/04/15 10:32:58;;;;;;;;;2.00;2.00;;;;;;;;5075662;28;45693;-71
2022/04/15 10:35:28;;;;;;;;;3.00;2.00;;;;;;;;5076191;27;47194;-71
2022/04/15 10:38:02;;;;;;;;;3.00;1.33;;;;;;;;5075096;28;45504;-71
2022/04/15 10:40:29;;;;;;;;;0.67;0.33;;;;;;;;5078030;27;45518;-74
2022/04/15 10:43:02;;;;;;;;;0.00;0.00;;;;;;;;5076592;27;45593;-77
2022/04/15 10:45:45;;;;;;;;;0.00;0.00;;;;;;;;5075759;27;45284;-79
2022/04/15 10:48:11;;;;;;;;;0.67;0.33;;;;;;;;5073991;27;45507;-74
2022/04/15 10:50:38;;;;;;;;;1.00;1.00;;;;;;;;5071228;27;45619;-72
2022/04/15 10:53:17;;;;;;;;;1.00;1.00;;;;;;;;5073869;27;45833;-76
2022/04/15 10:55:43;;;;;;;;;0.67;0.33;;;;;;;;5075018;28;46723;-72
2022/04/15 10:58:13;;;;;;;;;0.33;0.33;;;;;;;;5076397;27;45478;-71
2022/04/15 11:03:23;;;;;;;;;0.00;0.00;;;;;;;;5077476;27;45561;-73
2022/04/15 11:05:50;;;;;;;;;1.00;1.00;;;;;;;;5076944;27;47156;-73
2022/04/15 11:08:16;;;;;;;;;0.67;0.00;;;;;;;;5076823;27;45244;-73
2022/04/15 11:10:58;;;;;;;;;0.67;0.67;;;;;;;;5078357;27;45420;-72
2022/04/15 11:13:27;;;;;;;;;2.00;1.00;;;;;;;;5078454;27;45306;-73
2022/04/15 11:16:13;;;;;;;;;0.00;0.00;;;;;;;;5074429;28;46934;-72
2022/04/15 11:18:50;;;;;;;;;1.33;1.00;;;;;;;;5071733;27;45354;-73
2022/04/15 11:21:18;;;;;;;;;0.67;0.00;;;;;;;;5076899;27;45571;-72
2022/04/15 11:23:47;;;;;;;;;1.00;1.00;;;;;;;;5075652;27;45343;-72
2022/04/15 11:26:13;;;;;;;;;0.00;0.00;;;;;;;;5076492;27;45586;-71
2022/04/15 11:28:39;;;;;;;;;0.00;0.00;;;;;;;;5073794;28;45316;-72
2022/04/15 11:31:17;;;;;;;;;2.00;0.33;;;;;;;;5077502;27;45765;-72
2022/04/15 11:33:42;;;;;;;;;0.00;0.00;;;;;;;;5075458;27;45600;-71
2022/04/15 11:36:07;;;;;;;;;1.33;1.00;;;;;;;;5075686;27;46228;-70
2022/04/15 11:38:33;;;;;;;;;1.33;1.33;;;;;;;;5075016;27;45396;-69
2022/04/15 11:40:58;;;;;;;;;1.00;1.00;;;;;;;;5069980;28;45229;-68
2022/04/15 11:43:25;;;;;;;;;0.00;0.00;;;;;;;;5070769;27;45419;-70
2022/04/15 11:45:50;;;;;;;;;0.00;0.00;;;;;;;;5073243;27;46796;-69
2022/04/15 11:48:25;;;;;;;;;0.00;0.00;;;;;;;;5075752;27;45508;-69
2022/04/15 11:50:51;;;;;;;;;1.33;1.33;;;;;;;;5073266;27;45483;-69
2022/04/15 11:53:16;;;;;;;;;0.33;0.33;;;;;;;;5069573;27;45404;-71
2022/04/15 11:56:00;;;;;;;;;2.00;2.00;;;;;;;;5072212;27;45378;-70
2022/04/15 11:58:31;;;;;;;;;0.33;0.33;;;;;;;;5070520;27;45689;-70
2022/04/15 12:00:57;;;;;;;;;1.00;1.00;;;;;;;;5070570;27;45552;-71
2022/04/15 12:03:23;;;;;;;;;1.00;1.00;;;;;;;;5075763;27;45602;-71
2022/04/15 12:05:49;;;;;;;;;0.00;0.00;;;;;;;;5075309;27;46328;-69
2022/04/15 12:08:15;;;;;;;;;2.00;2.00;;;;;;;;5074505;27;45345;-67
2022/04/15 12:10:41;;;;;;;;;1.00;1.00;;;;;;;;5075010;27;45463;-67
2022/04/15 12:13:06;;;;;;;;;2.00;1.00;;;;;;;;5077277;27;45465;-68
2022/04/15 12:15:32;;;;;;;;;2.00;1.67;;;;;;;;5073405;27;47203;-67
2022/04/15 12:17:58;;;;;;;;;1.00;1.00;;;;;;;;5074512;28;45422;-68
2022/04/15 12:20:23;;;;;;;;;0.00;0.00;;;;;;;;5076332;27;45506;-67
2022/04/15 12:22:48;;;;;;;;;1.00;1.00;;;;;;;;5076470;27;45340;-67
2022/04/15 12:25:17;;;;;;;;;1.00;1.00;;;;;;;;5074258;28;46360;-68
2022/04/15 12:27:45;;;;;;;;;1.75;1.00;;;;;;;;5073871;28;45434;-67
2022/04/15 12:30:10;;;;;;;;;1.00;1.00;;;;;;;;5075750;27;45292;-68
2022/04/15 12:32:36;;;;;;;;;3.33;1.00;;;;;;;;5075166;27;45533;-68
2022/04/15 12:35:01;;;;;;;;;1.00;1.00;;;;;;;;5074691;27;45404;-68
2022/04/15 12:37:35;;;;;;;;;2.00;2.00;;;;;;;;5070938;28;45475;-68
2022/04/15 12:40:03;;;;;;;;;4.00;1.00;;;;;;;;5074688;28;45683;-68
2022/04/15 12:42:29;;;;;;;;;1.00;1.00;;;;;;;;5073184;27;45316;-68
2022/04/15 12:44:55;;;;;;;;;0.33;0.33;;;;;;;;5073864;28;46072;-68
2022/04/15 12:47:23;;;;;;;;;2.00;1.00;;;;;;;;5075101;27;45287;-68
2022/04/15 12:49:49;;;;;;;;;1.00;1.00;;;;;;;;5074462;27;45461;-68
2022/04/15 12:52:14;;;;;;;;;0.33;0.33;;;;;;;;5073434;28;45431;-67
2022/04/15 12:54:55;;;;;;;;;2.00;1.00;;;;;;;;5073339;27;47585;-67
2022/04/15 12:57:20;;;;;;;;;3.00;1.00;;;;;;;;5073502;27;45349;-67
2022/04/15 12:59:45;;;;;;;;;1.67;0.67;;;;;;;;5074265;28;45395;-68
2022/04/15 13:02:11;;;;;;;;;1.00;1.00;;;;;;;;5073805;27;45226;-68
2022/04/15 13:04:36;;;;;;;;;1.00;1.00;;;;;;;;5074265;28;46549;-67
2022/04/15 13:07:01;;;;;;;;;0.00;0.00;;;;;;;;5075015;27;45418;-68
2022/04/15 13:09:26;;;;;;;;;0.33;0.33;;;;;;;;5073753;27;45785;-68
2022/04/15 13:11:53;;;;;;;;;6.00;1.33;;;;;;;;5073734;28;45249;-67
2022/04/15 13:14:18;;;;;;;;;1.00;1.00;;;;;;;;5069068;27;45334;-67
2022/04/15 13:16:43;;;;;;;;;0.00;0.00;;;;;;;;5074797;27;45434;-67
2022/04/15 13:19:09;;;;;;;;;1.33;1.33;;;;;;;;5073275;27;45432;-67
2022/04/15 13:21:34;;;;;;;;;0.33;0.33;;;;;;;;5077492;28;45429;-68
2022/04/15 13:24:00;;;;;;;;;1.67;1.67;;;;;;;;5075416;27;45401;-68
2022/04/15 13:26:25;;;;;;;;;1.00;1.00;;;;;;;;5076240;28;45535;-68
2022/04/15 13:28:51;;;;;;;;;1.67;0.67;;;;;;;;5078103;27;45378;-68
2022/04/15 13:31:16;;;;;;;;;1.00;1.00;;;;;;;;5076355;28;45418;-67
2022/04/15 13:33:41;;;;;;;;;0.67;0.67;;;;;;;;5076696;28;46376;-68
2022/04/15 13:36:06;;;;;;;;;2.00;1.00;;;;;;;;5080451;27;45465;-68
2022/04/15 13:38:33;;;;;;;;;1.00;1.00;;;;;;;;5075742;28;45487;-68
2022/04/15 13:40:58;;;;;;;;;1.67;0.00;;;;;;;;5078058;27;45414;-68
2022/04/15 13:43:23;;;;;;;;;0.00;0.00;;;;;;;;5077169;27;46339;-68
2022/04/15 13:45:49;;;;;;;;;0.00;0.00;;;;;;;;5077112;27;45523;-67
2022/04/15 13:48:14;;;;;;;;;0.00;0.00;;;;;;;;5077852;27;45519;-67
2022/04/15 13:50:39;;;;;;;;;0.00;0.00;;;;;;;;5076918;27;45528;-67
2022/04/15 13:58:32;;;;;;;;;1.00;1.00;;;;;;;;5076314;28;45842;-68
2022/04/15 14:00:58;;;;;;;;;0.33;0.33;;;;;;;;5076246;27;45484;-68
2022/04/15 14:03:23;;;;;;;;;0.00;0.00;;;;;;;;5079265;27;46076;-67
2022/04/15 14:05:48;;;;;;;;;1.33;0.33;;;;;;;;5079775;27;45425;-67
2022/04/15 14:08:13;;;;;;;;;1.00;1.00;;;;;;;;5077043;27;45558;-68
2022/04/15 14:10:39;;;;;;;;;0.67;0.67;;;;;;;;5075318;28;45351;-68
2022/04/15 14:13:04;;;;;;;;;0.00;0.00;;;;;;;;5075753;28;46203;-68
2022/04/15 14:15:30;;;;;;;;;0.67;0.67;;;;;;;;5074763;27;45894;-68
2022/04/15 14:17:58;;;;;;;;;0.00;0.00;;;;;;;;5076514;28;45413;-69
2022/04/15 14:20:23;;;;;;;;;0.00;0.00;;;;;;;;5076067;27;45624;-68
2022/04/15 14:22:48;;;;;;;;;0.33;0.33;;;;;;;;5076953;27;45948;-67
2022/04/15 14:25:14;;;;;;;;;1.00;1.00;;;;;;;;5075381;27;45412;-68
2022/04/15 14:27:39;;;;;;;;;0.00;0.00;;;;;;;;5076072;28;45461;-68
2022/04/15 14:30:05;;;;;;;;;1.00;1.00;;;;;;;;5078148;27;45518;-68
2022/04/15 14:32:30;;;;;;;;;0.33;0.33;;;;;;;;5077028;27;46224;-69
2022/04/15 14:34:57;;;;;;;;;2.33;1.33;;;;;;;;5077378;27;45430;-68
2022/04/15 14:37:22;;;;;;;;;1.00;1.00;;;;;;;;5071536;28;45473;-68
2022/04/15 14:39:48;;;;;;;;;0.00;0.00;;;;;;;;5076024;28;45579;-68
2022/04/15 14:42:14;;;;;;;;;1.00;1.00;;;;;;;;5077603;27;46127;-69
2022/04/15 14:44:39;;;;;;;;;1.00;0.33;;;;;;;;5075621;28;45322;-68
2022/04/15 14:47:04;;;;;;;;;0.00;0.00;;;;;;;;5076406;27;45362;-68